Time;durP1;ratioP1;P1;durP2;ratioP2;P2;SDS_P1;SDS_P2;PMS_P1;PMS_P2;Temp;Humidity;BMP_temperature;BMP_pressure;BME280_temperature;BME280_humidity;BME280_pressure;Samples;Min_cycle;Max_cycle;Signal;HPM_P1;HPM_P2
2021/12/30 00:01:56;;;;;;;;;;;;;;;13.86;100.00;97787.94;5054841;28;19931;-75
2021/12/30 00:04:24;;;;;;;;;;;;;;;14.00;100.00;97790.03;5055017;28;19925;-76
2021/12/30 00:06:53;;;;;;;;;;;;;;;13.94;100.00;97785.53;5053641;28;19940;-76
2021/12/30 00:09:21;;;;;;;;;;;;;;;14.07;100.00;97797.34;5054690;28;19925;-76
2021/12/30 00:11:48;;;;;;;;;;;;;;;14.01;100.00;97804.88;5054594;28;19951;-76
2021/12/30 00:14:25;;;;;;;;;;;;;;;14.10;100.00;97796.38;5066773;28;19932;-76
2021/12/30 00:16:52;;;;;;;;;;;;;;;14.17;100.00;97784.78;5074828;28;19955;-76
2021/12/30 00:19:20;;;;;;;;;;;;;;;14.09;100.00;97789.19;5074535;28;20033;-76
2021/12/30 00:21:47;;;;;;;;;;;;;;;14.25;100.00;97786.78;5072789;28;19951;-76
2021/12/30 00:24:16;;;;;;;;;;;;;;;14.19;100.00;97805.50;5067176;28;20330;-76
2021/12/30 00:26:45;;;;;;;;;;;;;;;14.07;100.00;97794.53;5056225;28;20290;-75
2021/12/30 00:29:13;;;;;;;;;;;;;;;14.21;100.00;97794.59;5073156;28;20240;-76
2021/12/30 00:31:40;;;;;;;;;;;;;;;14.25;100.00;97800.81;5073224;28;20280;-75
2021/12/30 00:34:07;;;;;;;;;;;;;;;14.10;100.00;97802.00;5074105;28;20271;-75
2021/12/30 00:36:34;;;;;;;;;;;;;;;14.07;100.00;97797.34;5074384;28;20322;-76
2021/12/30 00:39:03;;;;;;;;;;;;;;;14.18;100.00;97820.03;5074236;28;20412;-76
2021/12/30 00:41:32;;;;;;;;;;;;;;;14.01;100.00;97816.84;5045571;28;20418;-76
2021/12/30 00:44:00;;;;;;;;;;;;;;;14.21;100.00;97813.47;5054102;28;20287;-76
2021/12/30 00:46:28;;;;;;;;;;;;;;;14.21;100.00;97819.09;5052967;28;19925;-76
2021/12/30 00:48:55;;;;;;;;;;;;;;;14.11;100.00;97826.03;5052876;28;19975;-76
2021/12/30 00:51:22;;;;;;;;;;;;;;;14.05;100.00;97839.94;5054220;28;20326;-76
2021/12/30 00:53:49;;;;;;;;;;;;;;;14.21;100.00;97828.28;5054061;28;19929;-75
2021/12/30 00:56:17;;;;;;;;;;;;;;;14.27;100.00;97829.22;5052503;28;20288;-76
2021/12/30 00:58:44;;;;;;;;;;;;;;;14.27;100.00;97828.44;5053863;28;19929;-75
2021/12/30 01:01:13;;;;;;;;;;;;;;;14.27;100.00;97839.69;5035722;28;20378;-75
2021/12/30 01:03:40;;;;;;;;;;;;;;;14.36;100.00;97848.84;5052626;28;20382;-76
2021/12/30 01:06:08;;;;;;;;;;;;;;;14.35;100.00;97840.88;5053731;28;20372;-75
2021/12/30 01:08:35;;;;;;;;;;;;;;;14.20;100.00;97846.41;5053884;28;19925;-75
2021/12/30 01:11:08;;;;;;;;;;;;;;;14.20;100.00;97849.22;5053630;28;20292;-75
2021/12/30 01:13:40;;;;;;;;;;;;;;;14.37;100.00;97846.81;5053615;28;20031;-76
2021/12/30 01:16:16;;;;;;;;;;;;;;;14.28;100.00;97853.25;5053700;28;20327;-76
2021/12/30 01:21:24;;;;;;;;;;;;;;;14.42;100.00;97846.94;5073688;28;19924;-75
2021/12/30 01:23:52;;;;;;;;;;;;;;;14.51;100.00;97840.47;5073435;28;19924;-76
2021/12/30 01:26:22;;;;;;;;;;;;;;;14.43;100.00;97839.28;5084823;28;20397;-76
2021/12/30 01:28:49;;;;;;;;;;;;;;;14.57;100.00;97838.53;5075890;28;20366;-76
2021/12/30 01:31:18;;;;;;;;;;;;;;;14.59;100.00;97844.47;5059451;28;19924;-76
2021/12/30 01:33:47;;;;;;;;;;;;;;;14.40;100.00;97849.44;5075534;28;19947;-76
2021/12/30 01:36:15;;;;;;;;;;;;;;;14.52;100.00;97856.09;5058882;28;19973;-76
2021/12/30 01:38:42;;;;;;;;;;;;;;;14.34;100.00;97859.00;5075546;28;20309;-76
2021/12/30 01:41:10;;;;;;;;;;;;;;;14.36;100.00;97856.47;5092999;28;20005;-76
2021/12/30 01:43:37;;;;;;;;;;;;;;;14.16;100.00;97867.50;5075442;28;20309;-75
2021/12/30 01:46:06;;;;;;;;;;;;;;;14.22;100.00;97871.22;5093607;28;20317;-75
2021/12/30 01:48:33;;;;;;;;;;;;;;;14.22;100.00;97877.59;5075434;28;20300;-75
2021/12/30 01:51:01;;;;;;;;;;;;;;;14.38;100.00;97880.06;5058877;28;19928;-76
2021/12/30 01:53:28;;;;;;;;;;;;;;;14.23;100.00;97872.78;5093231;28;19931;-76
2021/12/30 01:55:55;;;;;;;;;;;;;;;14.30;100.00;97872.44;5075442;28;19971;-75
2021/12/30 01:58:22;;;;;;;;;;;;;;;14.24;100.00;97874.34;5093500;28;19924;-75
2021/12/30 02:00:50;;;;;;;;;;;;;;;14.30;100.00;97878.84;5093341;28;19924;-76
2021/12/30 02:03:17;;;;;;;;;;;;;;;14.47;100.00;97870.78;5093472;28;19932;-76
2021/12/30 02:05:45;;;;;;;;;;;;;;;14.55;100.00;97866.38;5093496;28;19924;-76
2021/12/30 02:08:15;;;;;;;;;;;;;;;14.51;100.00;97871.38;5093122;28;19928;-76
2021/12/30 02:10:45;;;;;;;;;;;;;;;14.64;100.00;97871.94;5093306;28;19924;-76
2021/12/30 02:13:13;;;;;;;;;;;;;;;14.42;100.00;97863.78;5077391;28;19924;-76
2021/12/30 02:15:41;;;;;;;;;;;;;;;14.49;100.00;97851.41;5062506;28;19932;-76
2021/12/30 02:18:08;;;;;;;;;;;;;;;14.41;100.00;97870.66;5079176;28;20306;-76
2021/12/30 02:20:45;;;;;;;;;;;;;;;14.54;100.00;97861.22;5078872;28;19977;-76
2021/12/30 02:23:13;;;;;;;;;;;;;;;14.74;100.00;97862.16;5096807;28;19924;-76
2021/12/30 02:25:40;;;;;;;;;;;;;;;14.74;100.00;97867.78;5090990;28;19929;-76
2021/12/30 02:28:11;;;;;;;;;;;;;;;14.81;100.00;97867.44;5076397;28;19942;-76
2021/12/30 02:30:39;;;;;;;;;;;;;;;14.63;100.00;97861.91;5058922;28;20014;-75
2021/12/30 02:33:06;;;;;;;;;;;;;;;14.69;100.00;97854.41;5058945;28;19928;-75
2021/12/30 02:35:35;;;;;;;;;;;;;;;14.81;100.00;97863.84;5076394;28;20395;-76
2021/12/30 02:38:02;;;;;;;;;;;;;;;14.61;100.00;97858.84;5076461;28;19948;-76
2021/12/30 02:40:32;;;;;;;;;;;;;;;14.78;100.00;97864.78;5058592;28;19931;-76
2021/12/30 02:43:04;;;;;;;;;;;;;;;14.69;100.00;97864.88;5076376;28;19978;-76
2021/12/30 02:45:31;;;;;;;;;;;;;;;14.72;100.00;97873.13;5058317;28;19947;-76
2021/12/30 02:47:58;;;;;;;;;;;;;;;14.82;100.00;97863.34;5041845;28;20018;-75
2021/12/30 02:50:26;;;;;;;;;;;;;;;14.63;100.00;97870.34;5076173;28;19924;-75
2021/12/30 02:52:55;;;;;;;;;;;;;;;14.73;100.00;97882.31;5076243;28;20375;-76
2021/12/30 02:55:22;;;;;;;;;;;;;;;14.74;100.00;97862.16;5041642;28;20432;-76
2021/12/30 02:57:49;;;;;;;;;;;;;;;14.60;100.00;97862.88;5058211;28;19931;-75
2021/12/30 03:00:18;;;;;;;;;;;;;;;14.53;100.00;97854.81;5075971;28;19928;-76
2021/12/30 03:02:45;;;;;;;;;;;;;;;14.74;100.00;97873.41;5058261;28;19924;-76
2021/12/30 03:05:16;;;;;;;;;;;;;;;14.62;100.00;97871.63;5075765;28;19925;-76
2021/12/30 03:07:45;;;;;;;;;;;;;;;14.54;100.00;97873.22;5075792;28;19933;-76
2021/12/30 03:10:15;;;;;;;;;;;;;;;14.70;100.00;97861.56;5075888;28;19925;-75
2021/12/30 03:12:43;;;;;;;;;;;;;;;14.66;100.00;97855.34;5058033;28;19931;-76
2021/12/30 03:15:12;;;;;;;;;;;;;;;14.69;100.00;97867.69;5057984;28;20011;-76
2021/12/30 03:17:40;;;;;;;;;;;;;;;14.55;100.00;97877.59;5075726;28;19929;-76
2021/12/30 03:20:09;;;;;;;;;;;;;;;14.56;100.00;97872.75;5039775;28;19947;-76
2021/12/30 03:22:41;;;;;;;;;;;;;;;14.64;100.00;97862.72;5055385;28;20372;-76
2021/12/30 03:25:13;;;;;;;;;;;;;;;14.69;100.00;97859.25;5055348;28;19971;-76
2021/12/30 03:27:40;;;;;;;;;;;;;;;14.64;100.00;97859.91;5055558;28;20016;-75
2021/12/30 03:30:10;;;;;;;;;;;;;;;14.50;100.00;97852.97;5037619;28;20032;-75
2021/12/30 03:32:37;;;;;;;;;;;;;;;14.57;100.00;97860.25;5055493;28;19924;-75
2021/12/30 03:35:04;;;;;;;;;;;;;;;14.60;100.00;97865.69;5037388;28;19940;-76
2021/12/30 03:37:31;;;;;;;;;;;;;;;14.58;100.00;97871.03;5037466;28;19967;-76
2021/12/30 03:39:59;;;;;;;;;;;;;;;14.55;100.00;97874.00;5055310;28;19983;-75
2021/12/30 03:42:26;;;;;;;;;;;;;;;14.68;100.00;97875.31;5054270;28;19989;-75
2021/12/30 03:44:56;;;;;;;;;;;;;;;14.78;100.00;97882.47;5055281;28;19925;-76
2021/12/30 03:47:29;;;;;;;;;;;;;;;14.74;100.00;97887.47;5055225;28;19978;-76
2021/12/30 03:49:56;;;;;;;;;;;;;;;14.68;100.00;97886.56;5053650;28;20277;-76
2021/12/30 03:52:29;;;;;;;;;;;;;;;14.66;100.00;97872.19;5054956;28;19933;-75
2021/12/30 03:54:56;;;;;;;;;;;;;;;14.81;100.00;97881.50;5055200;28;19924;-76
2021/12/30 03:57:30;;;;;;;;;;;;;;;14.72;100.00;97897.66;5055083;28;19929;-76
2021/12/30 03:59:58;;;;;;;;;;;;;;;14.77;100.00;97894.94;5054945;28;19963;-76
2021/12/30 04:02:25;;;;;;;;;;;;;;;14.63;100.00;97887.22;5054872;28;19924;-76
2021/12/30 04:04:52;;;;;;;;;;;;;;;14.75;100.00;97885.44;5036881;28;19924;-76
2021/12/30 04:07:21;;;;;;;;;;;;;;;14.69;100.00;97884.53;5054654;28;19929;-76
2021/12/30 04:09:48;;;;;;;;;;;;;;;14.54;100.00;97892.13;5037018;28;19931;-76
2021/12/30 04:12:17;;;;;;;;;;;;;;;14.56;100.00;97884.78;5054688;28;19924;-76
2021/12/30 04:14:49;;;;;;;;;;;;;;;14.75;100.00;97874.97;5054797;28;19925;-75
2021/12/30 04:17:16;;;;;;;;;;;;;;;14.72;100.00;97884.38;5040064;28;19935;-76
2021/12/30 04:19:43;;;;;;;;;;;;;;;14.49;100.00;97891.53;5074411;28;19931;-76
2021/12/30 04:22:14;;;;;;;;;;;;;;;14.55;100.00;97877.59;5074552;28;20027;-75
2021/12/30 04:24:42;;;;;;;;;;;;;;;14.81;100.00;97869.47;5040431;28;19928;-75
2021/12/30 04:27:09;;;;;;;;;;;;;;;14.71;100.00;97868.75;5071165;28;20374;-76
2021/12/30 04:29:38;;;;;;;;;;;;;;;14.73;100.00;97871.88;5074452;28;19959;-76
2021/12/30 04:32:07;;;;;;;;;;;;;;;14.77;100.00;97872.44;5073012;28;20442;-76
2021/12/30 04:34:34;;;;;;;;;;;;;;;14.62;100.00;97882.88;5074102;28;19966;-76
2021/12/30 04:37:01;;;;;;;;;;;;;;;14.78;100.00;97882.47;5074051;28;20268;-75
2021/12/30 04:39:29;;;;;;;;;;;;;;;14.69;100.00;97879.72;5073042;28;20282;-76
2021/12/30 04:42:01;;;;;;;;;;;;;;;14.71;100.00;97896.84;5072929;28;19924;-76
2021/12/30 04:44:29;;;;;;;;;;;;;;;14.61;100.00;97903.81;5073068;28;20390;-75
2021/12/30 04:46:57;;;;;;;;;;;;;;;14.71;100.00;97899.66;5074206;28;19925;-75
2021/12/30 04:49:25;;;;;;;;;;;;;;;14.75;100.00;97908.72;5056266;28;19925;-75
2021/12/30 04:51:53;;;;;;;;;;;;;;;14.89;100.00;97919.22;5072755;28;19970;-76
2021/12/30 04:54:20;;;;;;;;;;;;;;;14.79;100.00;97920.56;5074114;28;20036;-76
2021/12/30 04:56:51;;;;;;;;;;;;;;;14.78;100.00;97927.44;5074007;28;20035;-76
2021/12/30 04:59:18;;;;;;;;;;;;;;;14.97;100.00;97923.22;5074164;28;19925;-75
2021/12/30 05:01:48;;;;;;;;;;;;;;;14.80;100.00;97930.53;5073651;28;20270;-76
2021/12/30 05:04:18;;;;;;;;;;;;;;;14.93;100.00;97931.09;5073729;28;20341;-76
2021/12/30 05:06:47;;;;;;;;;;;;;;;14.81;100.00;97929.31;5073937;28;19924;-76
2021/12/30 05:09:15;;;;;;;;;;;;;;;14.83;100.00;97932.38;5072626;28;19977;-76
2021/12/30 05:11:42;;;;;;;;;;;;;;;14.92;100.00;97935.13;5074092;28;19925;-75
2021/12/30 05:14:09;;;;;;;;;;;;;;;14.97;100.00;97937.28;5072592;28;19959;-75
2021/12/30 05:16:36;;;;;;;;;;;;;;;14.92;100.00;97926.69;5055950;28;20274;-76
2021/12/30 05:19:04;;;;;;;;;;;;;;;14.78;100.00;97926.66;5036559;28;19932;-76
2021/12/30 05:21:32;;;;;;;;;;;;;;;14.68;100.00;97931.53;5053669;28;19924;-76
2021/12/30 05:24:01;;;;;;;;;;;;;;;14.81;100.00;97940.53;5053590;28;19928;-76
2021/12/30 05:26:29;;;;;;;;;;;;;;;14.85;100.00;97945.97;5035849;28;20324;-76
2021/12/30 05:28:57;;;;;;;;;;;;;;;14.78;100.00;97947.13;5061711;28;20027;-75
2021/12/30 05:31:25;;;;;;;;;;;;;;;14.96;100.00;97947.00;5073315;28;19929;-75
2021/12/30 05:33:52;;;;;;;;;;;;;;;14.96;100.00;97952.63;5073513;28;19978;-76
2021/12/30 05:36:20;;;;;;;;;;;;;;;14.80;100.00;97938.97;5072333;28;19963;-76
2021/12/30 05:38:47;;;;;;;;;;;;;;;14.91;100.00;97949.69;5055955;28;20314;-75
2021/12/30 05:41:15;;;;;;;;;;;;;;;14.74;100.00;97957.75;5073667;28;19939;-76
2021/12/30 05:43:44;;;;;;;;;;;;;;;14.73;100.00;97955.41;5072462;28;19928;-75
2021/12/30 05:46:12;;;;;;;;;;;;;;;14.87;100.00;97949.88;5070101;28;20268;-76
2021/12/30 05:48:39;;;;;;;;;;;;;;;14.77;100.00;97942.72;5056267;28;19931;-75
2021/12/30 05:51:06;;;;;;;;;;;;;;;14.64;100.00;97947.81;5057517;28;19968;-75
2021/12/30 05:53:33;;;;;;;;;;;;;;;14.73;100.00;97944.97;5040149;28;19925;-75
2021/12/30 05:56:00;;;;;;;;;;;;;;;14.78;100.00;97946.34;5056304;28;19931;-75
2021/12/30 05:58:28;;;;;;;;;;;;;;;14.60;100.00;97952.81;5057476;28;19932;-76
2021/12/30 06:00:56;;;;;;;;;;;;;;;14.82;100.00;97955.38;5057270;28;19931;-75
2021/12/30 06:03:23;;;;;;;;;;;;;;;14.62;100.00;97950.31;5039520;28;19932;-75
2021/12/30 06:05:50;;;;;;;;;;;;;;;14.54;100.00;97982.84;5057332;28;19932;-76
2021/12/30 06:08:17;;;;;;;;;;;;;;;14.70;100.00;97974.03;5057200;28;19929;-75
2021/12/30 06:10:45;;;;;;;;;;;;;;;14.74;100.00;97968.25;5057145;28;19931;-76
2021/12/30 06:13:13;;;;;;;;;;;;;;;14.72;100.00;97977.16;5039423;28;19932;-76
2021/12/30 06:15:41;;;;;;;;;;;;;;;14.85;100.00;97977.69;5055874;28;19931;-75
2021/12/30 06:18:08;;;;;;;;;;;;;;;14.95;100.00;97989.66;5056963;28;19925;-75
2021/12/30 06:20:35;;;;;;;;;;;;;;;14.88;100.00;97996.41;5056998;28;19932;-75
2021/12/30 06:23:04;;;;;;;;;;;;;;;14.95;100.00;98012.94;5059315;28;19947;-76
2021/12/30 06:25:31;;;;;;;;;;;;;;;14.99;100.00;98016.34;5078638;28;19924;-76
2021/12/30 06:27:58;;;;;;;;;;;;;;;14.83;100.00;98016.75;5078830;28;19924;-76
2021/12/30 06:30:26;;;;;;;;;;;;;;;15.00;100.00;98015.09;5067845;28;19924;-75
2021/12/30 06:32:53;;;;;;;;;;;;;;;14.82;100.00;98015.19;5058843;28;19990;-76
2021/12/30 06:35:20;;;;;;;;;;;;;;;14.81;100.00;98027.72;5076874;28;19925;-75
2021/12/30 06:37:47;;;;;;;;;;;;;;;14.83;100.00;98030.81;5076747;28;20280;-75
2021/12/30 06:40:15;;;;;;;;;;;;;;;14.68;100.00;98034.81;5076494;28;19925;-75
2021/12/30 06:42:43;;;;;;;;;;;;;;;14.77;100.00;98029.91;5076379;28;19951;-76
2021/12/30 06:45:10;;;;;;;;;;;;;;;14.88;100.00;98038.59;5058731;28;20476;-76
2021/12/30 06:47:40;;;;;;;;;;;;;;;14.93;100.00;98035.16;5058596;28;19924;-76
2021/12/30 06:50:08;;;;;;;;;;;;;;;14.73;100.00;98039.75;5093753;28;20263;-75
2021/12/30 06:52:35;;;;;;;;;;;;;;;14.78;100.00;98031.47;5078573;28;19959;-75
2021/12/30 06:55:02;;;;;;;;;;;;;;;14.95;100.00;98029.03;5078419;28;19928;-75
2021/12/30 06:57:29;;;;;;;;;;;;;;;14.83;100.00;98033.63;5096316;28;19931;-75
2021/12/30 06:59:59;;;;;;;;;;;;;;;14.74;100.00;98030.84;5094184;28;19949;-75
2021/12/30 07:02:26;;;;;;;;;;;;;;;14.85;100.00;98031.13;5096459;28;20073;-75
2021/12/30 07:04:53;;;;;;;;;;;;;;;14.92;100.00;98036.38;5096457;28;19931;-75
2021/12/30 07:07:20;;;;;;;;;;;;;;;14.68;100.00;98021.50;5096436;28;19963;-76
2021/12/30 07:09:47;;;;;;;;;;;;;;;14.70;100.00;98016.19;5096089;28;19931;-76
2021/12/30 07:12:14;;;;;;;;;;;;;;;14.71;100.00;98017.75;5096021;28;19924;-76
2021/12/30 07:14:41;;;;;;;;;;;;;;;14.78;100.00;98000.53;5078319;28;19925;-75
2021/12/30 07:17:09;;;;;;;;;;;;;;;14.71;100.00;98009.31;5078328;28;19928;-76
2021/12/30 07:19:36;;;;;;;;;;;;;;;14.80;100.00;98006.44;5077912;28;19931;-75
2021/12/30 07:22:03;;;;;;;;;;;;;;;14.65;100.00;98002.00;5078144;28;19924;-76
2021/12/30 07:24:33;;;;;;;;;;;;;;;14.52;100.00;97996.59;5095967;28;19925;-76
2021/12/30 07:27:03;;;;;;;;;;;;;;;14.44;100.00;97989.78;5094328;28;19932;-75
2021/12/30 07:29:31;;;;;;;;;;;;;;;14.48;100.00;97979.13;5057466;28;19994;-75
2021/12/30 07:31:58;;;;;;;;;;;;;;;14.46;100.00;98004.88;5075569;28;19970;-75
2021/12/30 07:34:25;;;;;;;;;;;;;;;14.47;100.00;98014.09;5044594;28;19925;-76
2021/12/30 07:36:52;;;;;;;;;;;;;;;14.39;100.00;98002.44;5067484;28;20031;-75
2021/12/30 07:39:20;;;;;;;;;;;;;;;14.64;100.00;98020.13;5034813;28;19996;-75
2021/12/30 07:41:47;;;;;;;;;;;;;;;14.50;100.00;98021.59;5065558;28;19928;-75
2021/12/30 07:44:19;;;;;;;;;;;;;;;14.70;100.00;98021.81;5026338;28;19985;-75
2021/12/30 07:46:50;;;;;;;;;;;;;;;14.51;100.00;98013.94;5061078;28;19928;-76
2021/12/30 07:49:17;;;;;;;;;;;;;;;14.48;100.00;98021.28;5059954;28;19924;-75
2021/12/30 07:51:44;;;;;;;;;;;;;;;14.45;100.00;98010.97;5074738;28;20011;-75
2021/12/30 07:54:12;;;;;;;;;;;;;;;14.44;100.00;98029.13;5075208;28;19925;-75
2021/12/30 07:56:39;;;;;;;;;;;;;;;14.45;100.00;98019.41;5055944;28;19990;-75
2021/12/30 07:59:06;;;;;;;;;;;;;;;14.58;100.00;98016.41;5070856;28;19930;-76
2021/12/30 08:01:33;;;;;;;;;;;;;;;14.63;100.00;98018.59;5071618;28;19928;-75
2021/12/30 08:04:00;;;;;;;;;;;;;;;14.68;100.00;98013.06;5057049;28;19924;-75
2021/12/30 08:06:37;;;;;;;;;;;;;;;14.71;100.00;98014.94;5074715;28;19924;-75
2021/12/30 08:09:14;;;;;;;;;;;;;;;14.53;100.00;98012.22;5058209;28;19931;-76
2021/12/30 08:11:42;;;;;;;;;;;;;;;14.48;100.00;98012.09;5071151;28;20157;-75
2021/12/30 08:14:09;;;;;;;;;;;;;;;14.51;100.00;98017.50;5067403;28;19932;-76
2021/12/30 08:16:36;;;;;;;;;;;;;;;14.41;100.00;98024.44;5074519;28;20026;-76
2021/12/30 08:19:03;;;;;;;;;;;;;;;14.51;100.00;98017.50;5074396;28;19924;-76
2021/12/30 08:21:30;;;;;;;;;;;;;;;14.30;100.00;98013.69;5074432;28;19924;-76
2021/12/30 08:23:58;;;;;;;;;;;;;;;14.54;100.00;98024.25;5056742;28;19931;-75
2021/12/30 08:26:25;;;;;;;;;;;;;;;14.40;100.00;98031.31;5086120;28;19924;-76
2021/12/30 08:28:52;;;;;;;;;;;;;;;14.39;100.00;98032.56;5059905;28;19950;-76
2021/12/30 08:31:20;;;;;;;;;;;;;;;14.41;100.00;98036.47;5092520;28;19959;-76
2021/12/30 08:33:51;;;;;;;;;;;;;;;14.25;100.00;98030.44;5089301;28;19954;-76
2021/12/30 08:36:18;;;;;;;;;;;;;;;14.40;100.00;98039.75;5094514;28;19947;-76
2021/12/30 08:38:45;;;;;;;;;;;;;;;14.42;100.00;98049.25;5088023;28;19924;-76
2021/12/30 08:41:12;;;;;;;;;;;;;;;14.45;100.00;98042.69;5074165;28;19935;-76
2021/12/30 08:43:39;;;;;;;;;;;;;;;14.55;100.00;98045.47;5056191;28;19924;-78
2021/12/30 08:46:06;;;;;;;;;;;;;;;14.42;100.00;98051.28;5073991;28;19925;-77
2021/12/30 08:48:37;;;;;;;;;;;;;;;14.49;100.00;98053.78;5056020;28;20322;-77
2021/12/30 08:51:04;;;;;;;;;;;;;;;14.55;100.00;98048.28;5039860;28;19931;-77
2021/12/30 08:53:31;;;;;;;;;;;;;;;14.42;100.00;98054.09;5073808;28;20405;-77
2021/12/30 08:55:59;;;;;;;;;;;;;;;14.33;100.00;98049.28;5055938;28;20405;-77
2021/12/30 08:58:26;;;;;;;;;;;;;;;14.31;100.00;98048.22;5090251;28;20271;-77
2021/12/30 09:00:53;;;;;;;;;;;;;;;14.39;100.00;98053.00;5075904;28;19928;-77
2021/12/30 09:03:23;;;;;;;;;;;;;;;14.46;100.00;98049.84;5065624;28;20379;-77
2021/12/30 09:05:50;;;;;;;;;;;;;;;14.58;100.00;98055.75;5085254;28;20345;-77
2021/12/30 09:08:17;;;;;;;;;;;;;;;14.46;100.00;98055.47;5064456;28;20298;-77
2021/12/30 09:10:46;;;;;;;;;;;;;;;14.38;100.00;98070.34;5087008;28;19924;-77
2021/12/30 09:13:18;;;;;;;;;;;;;;;14.36;100.00;98055.97;5068751;28;20397;-77
2021/12/30 09:15:46;;;;;;;;;;;;;;;14.45;100.00;98047.53;5091043;28;20028;-77
2021/12/30 09:18:13;;;;;;;;;;;;;;;14.53;100.00;98054.38;5082354;28;19939;-77
2021/12/30 09:20:42;;;;;;;;;;;;;;;14.45;100.00;98047.53;5048970;28;20264;-77
2021/12/30 09:23:11;;;;;;;;;;;;;;;14.69;100.00;98064.47;5089214;28;20041;-77
2021/12/30 09:25:39;;;;;;;;;;;;;;;14.57;100.00;98066.22;5082048;28;19928;-77
2021/12/30 09:28:12;;;;;;;;;;;;;;;14.66;100.00;98083.03;5066354;28;19931;-77
2021/12/30 09:30:43;;;;;;;;;;;;;;;14.63;100.00;98089.63;5055673;28;19959;-77
2021/12/30 09:33:15;;;;;;;;;;;;;;;14.65;100.00;98091.94;5051890;28;19933;-77
2021/12/30 09:35:47;;;;;;;;;;;;;;;14.57;100.00;98099.19;5064561;28;19924;-77
2021/12/30 09:38:17;;;;;;;;;;;;;;;14.73;100.00;98110.06;5072642;28;19963;-77
2021/12/30 09:40:47;;;;;;;;;;;;;;;14.76;100.00;98115.53;5054321;28;19931;-77
2021/12/30 09:43:14;;;;;;;;;;;;;;;15.07;100.00;98124.44;5071248;28;19925;-78
2021/12/30 09:45:42;;;;;;;;;;;;;;;14.84;100.00;98119.56;5037107;28;19924;-76
2021/12/30 09:48:11;;;;;;;;;;;;;;;14.78;100.00;98132.72;5064808;28;20317;-75
2021/12/30 09:50:42;;;;;;;;;;;;;;;14.81;100.00;98148.63;5064494;28;19925;-77
2021/12/30 09:53:11;;;;;;;;;;;;;;;14.84;100.00;98149.69;5052206;28;19931;-77
2021/12/30 09:55:38;;;;;;;;;;;;;;;15.09;100.00;98140.84;5070375;28;19924;-77
2021/12/30 09:58:06;;;;;;;;;;;;;;;15.01;100.00;98164.97;5055396;28;19924;-77
2021/12/30 10:00:36;;;;;;;;;;;;;;;15.11;100.00;98156.00;5055534;28;19931;-77
2021/12/30 10:03:04;;;;;;;;;;;;;;;15.10;100.00;98174.13;5073160;28;19977;-77
2021/12/30 10:05:33;;;;;;;;;;;;;;;15.09;100.00;98175.38;5053726;28;19924;-77
2021/12/30 10:08:09;;;;;;;;;;;;;;;15.35;100.00;98168.09;5063124;28;20364;-78
2021/12/30 10:10:38;;;;;;;;;;;;;;;15.46;100.00;98178.84;5046372;28;19925;-79
2021/12/30 10:13:21;;;;;;;;;;;;;;;15.53;100.00;98170.03;5049120;28;19925;-79
2021/12/30 10:15:51;;;;;;;;;;;;;;;15.24;100.00;98165.00;5045631;28;20023;-79
2021/12/30 10:18:19;;;;;;;;;;;;;;;15.37;100.00;98168.41;5044585;28;19994;-79
2021/12/30 10:20:49;;;;;;;;;;;;;;;15.49;100.00;98170.25;5047635;28;20611;-77
2021/12/30 10:23:22;;;;;;;;;;;;;;;15.55;100.00;98168.31;5058701;28;20015;-77
2021/12/30 10:25:58;;;;;;;;;;;;;;;15.61;100.00;98171.25;5055934;28;20391;-76
2021/12/30 10:28:36;;;;;;;;;;;;;;;15.38;100.00;98158.72;5055529;28;19928;-77
2021/12/30 10:31:11;;;;;;;;;;;;;;;15.64;100.00;98173.91;5044976;28;19924;-77
2021/12/30 10:33:50;;;;;;;;;;;;;;;15.74;100.00;98177.41;5033882;28;20333;-76
2021/12/30 10:36:22;;;;;;;;;;;;;;;15.71;100.00;98176.34;5065625;28;19924;-76
2021/12/30 10:38:50;;;;;;;;;;;;;;;15.92;100.00;98180.91;5047331;28;20371;-76
2021/12/30 10:41:21;;;;;;;;;;;;;;;15.80;100.00;98184.75;5068851;28;20027;-76
2021/12/30 10:43:51;;;;;;;;;;;;;;;15.81;100.00;98183.47;5061440;28;19935;-76
2021/12/30 10:46:27;;;;;;;;;;;;;;;15.93;100.00;98198.59;5073192;28;19932;-76
2021/12/30 10:49:09;;;;;;;;;;;;;;;16.09;100.00;98195.34;5064015;28;19929;-77
2021/12/30 10:51:43;;;;;;;;;;;;;;;15.74;100.00;98197.13;5041404;28;19924;-76
2021/12/30 10:54:19;;;;;;;;;;;;;;;15.59;100.00;98196.28;5022383;28;20023;-76
2021/12/30 10:56:57;;;;;;;;;;;;;;;15.70;100.00;98196.53;5057875;28;19986;-77
2021/12/30 10:59:27;;;;;;;;;;;;;;;15.77;100.00;98207.44;5075473;28;19943;-76
2021/12/30 11:01:56;;;;;;;;;;;;;;;15.80;100.00;98193.19;5053384;28;20002;-77
2021/12/30 11:04:34;;;;;;;;;;;;;;;15.86;100.00;98205.34;5053045;28;20371;-76
2021/12/30 11:07:02;;;;;;;;;;;;;;;15.93;100.00;98207.81;5075880;28;19960;-76
2021/12/30 11:09:29;;;;;;;;;;;;;;;15.80;100.00;98210.09;5053598;28;20376;-77
2021/12/30 11:12:01;;;;;;;;;;;;;;;16.02;100.00;98202.09;5067070;28;19925;-77
2021/12/30 11:14:36;;;;;;;;;;;;;;;15.78;100.00;98204.16;5037532;28;19979;-76
2021/12/30 11:17:16;;;;;;;;;;;;;;;15.90;100.00;98199.56;5037473;28;19924;-77
2021/12/30 11:19:52;;;;;;;;;;;;;;;15.91;100.00;98213.16;5065580;28;19924;-77
2021/12/30 11:22:21;;;;;;;;;;;;;;;15.86;100.00;98211.00;5066706;28;19952;-76
2021/12/30 11:24:50;;;;;;;;;;;;;;;15.78;100.00;98203.38;5047361;28;19934;-79
2021/12/30 11:27:18;;;;;;;;;;;;;;;15.78;100.00;98206.97;5062973;28;19924;-79
2021/12/30 11:29:47;;;;;;;;;;;;;;;16.00;100.00;98210.28;5064687;28;19924;-79
2021/12/30 11:32:19;;;;;;;;;;;;;;;16.03;100.00;98212.13;5072663;28;19978;-79
2021/12/30 11:34:47;;;;;;;;;;;;;;;15.96;100.00;98189.19;5059659;28;19932;-79
2021/12/30 11:37:15;;;;;;;;;;;;;;;16.09;100.00;98201.75;5070916;28;20015;-76
2021/12/30 11:39:49;;;;;;;;;;;;;;;15.99;100.00;98191.78;5064713;28;20485;-77
2021/12/30 11:42:18;;;;;;;;;;;;;;;15.81;100.00;98191.16;5060407;28;19928;-77
2021/12/30 11:44:47;;;;;;;;;;;;;;;15.88;100.00;98188.75;5073200;28;19925;-77
2021/12/30 11:47:33;;;;;;;;;;;;;;;15.93;100.00;98193.72;5075003;28;19959;-77
2021/12/30 11:50:06;;;;;;;;;;;;;;;15.72;100.00;98188.41;5043382;28;19970;-76
2021/12/30 11:52:49;;;;;;;;;;;;;;;15.86;100.00;98184.84;5057526;28;19928;-76
2021/12/30 11:55:36;;;;;;;;;;;;;;;16.06;100.00;98179.38;5090325;28;19931;-76
2021/12/30 11:58:25;;;;;;;;;;;;;;;15.94;100.00;98183.25;5074551;28;19932;-76
2021/12/30 12:00:52;;;;;;;;;;;;;;;15.76;100.00;98195.41;5092443;28;20351;-76
2021/12/30 12:03:30;;;;;;;;;;;;;;;15.61;100.00;98205.84;5072933;28;20343;-76
2021/12/30 12:05:58;;;;;;;;;;;;;;;15.75;100.00;98210.72;5059167;28;19930;-78
2021/12/30 12:08:29;;;;;;;;;;;;;;;15.68;100.00;98204.69;5063938;28;19971;-76
2021/12/30 12:11:14;;;;;;;;;;;;;;;15.55;100.00;98199.28;5060060;28;19951;-77
2021/12/30 12:13:41;;;;;;;;;;;;;;;15.73;100.00;98206.84;5074859;28;19925;-77
2021/12/30 12:16:08;;;;;;;;;;;;;;;15.63;100.00;98197.66;5093169;28;19924;-77
2021/12/30 12:18:36;;;;;;;;;;;;;;;15.58;100.00;98203.97;5094969;28;19924;-76
2021/12/30 12:21:04;;;;;;;;;;;;;;;15.74;100.00;98197.91;5076979;28;19924;-77
2021/12/30 12:23:37;;;;;;;;;;;;;;;15.58;100.00;98195.53;5076999;28;19931;-77
2021/12/30 12:26:11;;;;;;;;;;;;;;;15.59;100.00;98188.63;5095054;28;19954;-76
2021/12/30 12:28:38;;;;;;;;;;;;;;;15.51;100.00;98178.22;5073078;28;19932;-77
2021/12/30 12:31:14;;;;;;;;;;;;;;;15.66;100.00;98207.97;5090916;28;19928;-82
2021/12/30 12:33:42;;;;;;;;;;;;;;;15.64;100.00;98210.50;5076240;28;19925;-79
2021/12/30 12:36:11;;;;;;;;;;;;;;;15.69;100.00;98223.91;5054267;28;20383;-78
2021/12/30 12:38:43;;;;;;;;;;;;;;;15.50;100.00;98216.84;5074482;28;19924;-79
2021/12/30 12:41:27;;;;;;;;;;;;;;;15.51;100.00;98212.00;5056447;28;20031;-80
2021/12/30 12:44:01;;;;;;;;;;;;;;;15.57;100.00;98215.72;5074199;28;19924;-80
2021/12/30 12:46:38;;;;;;;;;;;;;;;15.59;100.00;98216.78;5065141;28;20022;-80
2021/12/30 12:49:17;;;;;;;;;;;;;;;15.64;100.00;98224.59;5094076;28;19924;-80